Time;durP1;ratioP1;P1;durP2;ratioP2;P2;SDS_P1;SDS_P2;PMS_P1;PMS_P2;Temp;Humidity;BMP_temperature;BMP_pressure;BME280_temperature;BME280_humidity;BME280_pressure;Samples;Min_cycle;Max_cycle;Signal;HPM_P1;HPM_P2
2022/01/06 00:00:42;;;;;;;35.13;12.90;;;9.00;80.60;;;9.02;56.88;94091.97;4989900;28;21007;-62
2022/01/06 00:03:09;;;;;;;26.50;12.87;;;9.00;80.70;;;8.99;57.55;94100.94;4989871;28;20463;-57
2022/01/06 00:05:36;;;;;;;21.10;13.50;;;9.00;80.80;;;8.95;57.41;94095.19;4991927;28;20474;-58
2022/01/06 00:08:04;;;;;;;23.53;13.30;;;8.90;80.70;;;8.91;57.65;94099.06;4990228;28;20482;-60
2022/01/06 00:10:33;;;;;;;19.03;12.47;;;8.90;81.30;;;8.87;56.92;94083.78;4992257;28;20493;-61
2022/01/06 00:13:11;;;;;;;21.13;12.50;;;8.90;81.00;;;8.82;57.66;94086.84;4988635;28;20462;-59
2022/01/06 00:15:44;;;;;;;22.50;13.90;;;8.80;81.30;;;8.81;57.59;94094.84;4990707;28;20573;-58
2022/01/06 00:18:26;;;;;;;18.50;12.70;;;8.80;81.60;;;8.78;57.42;94101.22;4991864;28;20446;-57
2022/01/06 00:23:39;;;;;;;20.37;13.50;;;8.70;81.50;;;8.74;58.25;94098.06;4987958;28;20474;-58
2022/01/06 00:26:08;;;;;;;20.10;12.77;;;8.70;81.90;;;8.71;57.61;94100.16;4989403;28;20478;-58
2022/01/06 00:28:36;;;;;;;22.60;13.23;;;8.70;81.50;;;8.69;57.97;94096.84;4990382;28;20577;-58
2022/01/06 00:31:03;;;;;;;19.87;13.20;;;8.60;81.60;;;8.64;58.03;94093.84;4991587;28;20481;-59
2022/01/06 00:33:31;;;;;;;24.80;14.23;;;8.60;81.60;;;8.58;57.54;94101.34;4990217;28;20454;-61
2022/01/06 00:35:59;;;;;;;25.37;14.50;;;8.50;81.50;;;8.53;57.96;94097.50;4990026;28;20544;-61
2022/01/06 00:38:26;;;;;;;32.03;16.37;;;8.50;82.10;;;8.47;57.83;94114.63;4989157;28;20450;-62
2022/01/06 00:40:54;;;;;;;26.03;15.17;;;8.50;81.90;;;8.40;57.75;94110.94;4991174;28;20826;-58
2022/01/06 00:43:23;;;;;;;28.40;14.00;;;8.40;82.40;;;8.34;58.23;94114.94;4990634;28;20451;-59
2022/01/06 00:45:50;;;;;;;20.50;14.20;;;8.30;82.70;;;8.26;58.34;94107.81;4990273;28;20553;-64
2022/01/06 00:48:17;;;;;;;22.77;14.63;;;8.30;82.70;;;8.22;58.43;94122.16;4992953;28;20490;-57
2022/01/06 00:50:45;;;;;;;22.70;14.50;;;8.20;83.30;;;8.19;58.22;94121.63;4989146;28;20475;-61
2022/01/06 00:53:12;;;;;;;25.70;15.40;;;8.20;82.90;;;8.13;59.49;94120.38;4987927;28;20987;-59
2022/01/06 00:55:39;;;;;;;30.60;15.70;;;8.10;83.80;;;8.11;59.01;94129.38;4990407;28;20998;-57
2022/01/06 00:58:07;;;;;;;25.43;14.33;;;8.10;83.60;;;8.09;59.04;94132.13;4989046;28;20521;-61
2022/01/06 01:00:40;;;;;;;28.80;18.20;;;8.10;83.90;;;8.07;59.18;94141.91;4990998;28;20482;-58
2022/01/06 01:03:12;;;;;;;31.33;16.93;;;8.00;83.90;;;8.07;58.81;94134.06;4991411;28;20442;-62
2022/01/06 01:05:39;;;;;;;39.57;17.20;;;8.00;83.90;;;8.03;59.14;94149.25;4990770;28;20470;-58
2022/01/06 01:08:07;;;;;;;27.70;15.43;;;8.00;84.00;;;7.98;58.69;94124.44;4990035;28;20488;-58
2022/01/06 01:10:34;;;;;;;37.13;17.37;;;8.00;84.10;;;7.92;58.94;94132.84;4989645;28;20482;-58
2022/01/06 01:13:02;;;;;;;30.93;17.50;;;7.90;83.70;;;7.86;59.24;94140.31;4987981;28;20450;-59
2022/01/06 01:15:31;;;;;;;34.60;17.67;;;7.90;84.80;;;7.81;59.14;94134.69;4990310;28;20482;-58
2022/01/06 01:18:06;;;;;;;30.87;17.33;;;7.80;84.80;;;7.76;59.70;94120.38;4989585;28;20478;-62
2022/01/06 01:20:33;;;;;;;29.53;16.83;;;7.80;85.70;;;7.72;59.96;94138.97;4988663;28;20481;-62
2022/01/06 01:23:00;;;;;;;27.20;17.10;;;7.70;86.10;;;7.71;59.75;94123.41;4990844;28;20455;-61
2022/01/06 01:25:28;;;;;;;36.53;18.00;;;7.70;85.80;;;7.70;60.09;94129.63;4990527;28;20855;-59
2022/01/06 01:27:56;;;;;;;32.70;18.50;;;7.70;86.00;;;7.70;60.07;94142.72;4989898;28;20880;-59
2022/01/06 01:30:30;;;;;;;62.93;18.87;;;7.70;86.90;;;7.68;60.53;94128.91;4989362;28;20656;-63
2022/01/06 01:32:58;;;;;;;32.50;18.80;;;7.70;86.40;;;7.66;60.15;94120.41;4987891;28;21750;-59
2022/01/06 01:35:31;;;;;;;32.60;18.20;;;7.70;86.90;;;7.65;60.50;94129.19;4990802;28;20482;-62
2022/01/06 01:37:58;;;;;;;38.93;21.40;;;7.60;86.80;;;7.61;60.27;94118.19;4988362;28;21003;-57
2022/01/06 01:40:27;;;;;;;34.50;20.60;;;7.60;86.80;;;7.58;60.15;94133.38;4990304;28;20628;-58
2022/01/06 01:42:54;;;;;;;45.80;23.00;;;7.60;86.80;;;7.54;60.70;94107.47;4989365;28;20481;-58
2022/01/06 01:45:28;;;;;;;40.33;21.23;;;7.60;86.80;;;7.48;60.33;94128.97;4988222;28;20569;-61
2022/01/06 01:47:57;;;;;;;36.77;20.77;;;7.50;86.70;;;7.43;61.38;94115.47;4988459;28;20497;-61
2022/01/06 01:50:26;;;;;;;36.03;20.70;;;7.50;87.50;;;7.38;60.99;94112.44;4991302;28;20485;-61
2022/01/06 01:52:54;;;;;;;40.07;23.27;;;7.40;87.20;;;7.31;61.55;94113.94;4990741;28;20470;-61
2022/01/06 01:55:24;;;;;;;39.80;21.90;;;7.30;87.80;;;7.28;60.83;94116.84;4988271;28;20474;-62
2022/01/06 01:57:51;;;;;;;50.03;23.00;;;7.30;87.60;;;7.24;61.72;94118.09;4989682;28;20846;-58
2022/01/06 02:00:19;;;;;;;47.63;24.40;;;7.30;88.80;;;7.20;61.89;94087.94;4987777;28;20532;-60
2022/01/06 02:02:47;;;;;;;46.93;25.20;;;7.20;89.80;;;7.16;62.32;94103.91;4987909;28;20465;-62
2022/01/06 02:05:14;;;;;;;39.87;22.03;;;7.20;89.50;;;7.14;62.27;94105.84;4990005;28;20478;-61
2022/01/06 02:07:43;;;;;;;33.23;20.40;;;7.20;89.70;;;7.13;61.91;94114.66;4988517;28;20458;-58
2022/01/06 02:10:12;;;;;;;38.50;20.33;;;7.10;90.10;;;7.15;62.40;94104.88;4989437;28;20494;-61
2022/01/06 02:12:41;;;;;;;41.70;21.73;;;7.10;90.10;;;7.19;62.54;94123.75;4991072;28;20457;-61
2022/01/06 02:15:10;;;;;;;46.77;20.80;;;7.20;90.30;;;7.21;62.17;94113.16;4988246;28;20474;-58
2022/01/06 02:17:38;;;;;;;39.03;19.83;;;7.20;90.00;;;7.22;62.05;94097.31;4990073;28;20453;-58
2022/01/06 02:20:09;;;;;;;24.53;16.17;;;7.20;90.10;;;7.21;62.12;94131.47;4989301;28;20497;-61
2022/01/06 02:22:37;;;;;;;30.87;17.77;;;7.20;89.80;;;7.22;62.47;94112.16;4989690;28;20478;-59
2022/01/06 02:25:12;;;;;;;31.87;18.00;;;7.20;90.10;;;7.24;62.17;94115.50;4989780;28;20475;-57
2022/01/06 02:27:39;;;;;;;35.30;18.50;;;7.30;89.90;;;7.22;62.35;94139.16;4987791;28;20839;-59
2022/01/06 02:30:08;;;;;;;30.87;17.93;;;7.20;90.10;;;7.24;62.01;94137.22;4989625;28;20494;-62
2022/01/06 02:32:35;;;;;;;39.50;18.63;;;7.20;90.00;;;7.27;62.05;94123.06;4989157;28;20447;-60
2022/01/06 02:35:10;;;;;;;34.77;18.30;;;7.30;90.20;;;7.27;61.82;94142.19;4989644;28;20481;-57
2022/01/06 02:37:37;;;;;;;30.27;18.20;;;7.30;90.00;;;7.29;61.97;94121.94;4989312;28;20800;-61
2022/01/06 02:40:08;;;;;;;32.37;18.23;;;7.30;90.00;;;7.30;61.70;94135.88;4990100;28;20501;-58
2022/01/06 02:42:36;;;;;;;28.13;17.73;;;7.30;90.00;;;7.30;61.58;94141.91;4989077;28;20458;-57
2022/01/06 02:45:04;;;;;;;31.30;18.27;;;7.30;89.70;;;7.32;61.79;94139.97;4987739;28;20611;-59
2022/01/06 02:47:32;;;;;;;24.67;15.90;;;7.30;89.70;;;7.31;61.58;94140.09;4989454;28;20466;-59
2022/01/06 02:49:59;;;;;;;24.80;14.20;;;7.30;89.70;;;7.31;61.56;94142.72;4988720;28;20573;-61
2022/01/06 02:52:28;;;;;;;32.23;14.53;;;7.30;90.00;;;7.30;62.50;94117.56;4988940;28;20530;-62
2022/01/06 02:54:55;;;;;;;26.70;14.23;;;7.30;90.10;;;7.29;61.88;94128.97;4989326;28;20503;-59
2022/01/06 02:57:22;;;;;;;26.00;14.43;;;7.30;90.00;;;7.29;61.90;94110.66;4989343;28;20462;-61
2022/01/06 02:59:50;;;;;;;26.30;13.00;;;7.30;90.00;;;7.29;62.03;94119.31;4990589;28;20474;-59
2022/01/06 03:02:17;;;;;;;22.10;12.50;;;7.30;90.00;;;7.25;62.24;94112.72;4993369;28;20809;-58
2022/01/06 03:04:44;;;;;;;23.27;14.53;;;7.30;90.00;;;7.25;62.21;94117.97;4992544;28;20462;-58
2022/01/06 03:07:12;;;;;;;20.67;12.67;;;7.30;90.20;;;7.29;62.30;94123.75;4993674;28;20482;-62
2022/01/06 03:09:42;;;;;;;22.60;14.27;;;7.30;90.50;;;7.31;61.90;94138.34;4991230;28;20494;-57
2022/01/06 03:12:18;;;;;;;23.00;14.10;;;7.30;90.30;;;7.31;62.25;94124.41;4991689;28;20446;-60
2022/01/06 03:14:45;;;;;;;18.40;11.80;;;7.30;90.10;;;7.31;61.80;94138.34;4991225;28;20472;-61
2022/01/06 03:17:12;;;;;;;21.13;12.30;;;7.30;90.40;;;7.33;62.20;94136.41;4992945;28;20967;-61
2022/01/06 03:19:40;;;;;;;21.37;13.13;;;7.30;90.30;;;7.37;61.71;94136.94;4993284;28;20831;-56
2022/01/06 03:22:07;;;;;;;24.83;13.80;;;7.40;90.00;;;7.41;62.31;94138.31;4992284;28;20869;-62
2022/01/06 03:24:34;;;;;;;18.23;12.07;;;7.40;90.40;;;7.45;61.43;94128.41;4991574;28;20682;-59
2022/01/06 03:27:03;;;;;;;17.13;12.20;;;7.40;90.20;;;7.48;62.33;94143.81;4992680;28;20490;-58
2022/01/06 03:29:31;;;;;;;23.90;13.43;;;7.50;90.20;;;7.49;61.98;94121.94;4992268;28;20885;-62
2022/01/06 03:31:58;;;;;;;19.20;13.37;;;7.50;90.30;;;7.49;61.83;94141.06;4991173;28;20854;-61
2022/01/06 03:34:26;;;;;;;18.50;12.73;;;7.50;89.90;;;7.47;61.13;94131.72;4989781;28;20454;-61
2022/01/06 03:36:53;;;;;;;27.00;14.10;;;7.50;89.70;;;7.47;61.94;94148.25;4992457;28;20474;-57
2022/01/06 03:39:21;;;;;;;23.07;13.10;;;7.50;90.00;;;7.47;61.57;94129.91;4992610;28;20851;-62
2022/01/06 03:41:48;;;;;;;19.67;12.53;;;7.50;90.00;;;7.49;61.42;94130.59;4991899;28;20963;-62
2022/01/06 03:44:18;;;;;;;28.43;15.00;;;7.50;90.00;;;7.48;61.92;94128.97;4991654;28;20482;-62
2022/01/06 03:46:45;;;;;;;20.70;12.93;;;7.50;89.70;;;7.48;61.42;94135.97;4990131;28;20533;-62
2022/01/06 03:49:12;;;;;;;18.70;12.63;;;7.50;89.80;;;7.47;61.56;94124.69;4990909;28;20485;-61
2022/01/06 03:51:40;;;;;;;21.63;13.70;;;7.50;90.10;;;7.47;61.53;94129.91;4991331;28;20521;-58
2022/01/06 03:54:07;;;;;;;21.70;13.50;;;7.40;89.80;;;7.45;61.05;94144.94;4992304;28;20455;-62
2022/01/06 03:56:36;;;;;;;23.43;13.40;;;7.40;89.60;;;7.44;61.76;94145.91;4991531;28;20511;-61
2022/01/06 03:59:04;;;;;;;21.60;13.57;;;7.40;89.80;;;7.41;61.38;94154.03;4990414;28;20626;-58
2022/01/06 04:01:32;;;;;;;38.80;19.90;;;7.40;89.60;;;7.36;61.78;94153.63;4990398;28;20536;-57
2022/01/06 04:03:59;;;;;;;34.83;20.63;;;7.40;89.80;;;7.31;61.50;94151.41;4987636;28;20450;-59
2022/01/06 04:06:27;;;;;;;41.20;22.83;;;7.30;89.50;;;7.27;61.77;94154.44;4991577;28;20466;-61
2022/01/06 04:08:54;;;;;;;42.70;24.87;;;7.30;89.70;;;7.22;62.04;94154.00;4991522;28;20466;-57
2022/01/06 04:11:21;;;;;;;24.10;14.80;;;7.20;89.60;;;7.10;61.67;94176.88;4989207;28;21069;-62
2022/01/06 04:13:49;;;;;;;32.83;19.50;;;7.10;89.70;;;6.97;62.31;94125.66;4991019;28;20967;-57
2022/01/06 04:16:17;;;;;;;24.90;16.90;;;7.00;90.30;;;6.89;62.36;94169.13;4987244;28;20537;-59
2022/01/06 04:18:46;;;;;;;20.37;11.53;;;6.90;90.40;;;6.82;62.72;94133.06;4990854;28;20462;-59
2022/01/06 04:21:13;;;;;;;22.67;13.57;;;6.90;90.50;;;6.81;62.89;94135.81;4990082;28;20474;-58
2022/01/06 04:23:41;;;;;;;30.07;12.80;;;6.90;90.90;;;6.86;62.85;94164.16;4993885;28;20505;-57
2022/01/06 04:26:08;;;;;;;25.10;13.07;;;6.80;90.90;;;6.89;62.74;94142.97;4990256;28;20474;-61
2022/01/06 04:28:36;;;;;;;25.90;14.70;;;6.90;90.90;;;6.92;62.17;94181.91;4990730;28;20463;-58
2022/01/06 04:31:04;;;;;;;22.40;14.23;;;6.90;90.70;;;6.92;62.20;94174.06;4991064;28;20601;-62
2022/01/06 04:33:33;;;;;;;18.80;13.30;;;6.90;90.70;;;6.95;62.36;94174.63;4991401;28;20923;-59
2022/01/06 04:36:01;;;;;;;27.00;15.60;;;6.90;90.90;;;6.98;62.60;94176.97;4990712;28;21010;-58
2022/01/06 04:38:29;;;;;;;20.70;13.77;;;7.00;90.90;;;7.03;62.59;94176.56;4988872;28;20462;-61
2022/01/06 04:40:57;;;;;;;20.40;14.23;;;7.00;90.70;;;7.04;62.44;94196.53;4988741;28;20474;-60
2022/01/06 04:43:25;;;;;;;24.87;14.13;;;7.00;90.70;;;7.07;62.97;94175.34;4990139;28;20544;-59
2022/01/06 04:45:53;;;;;;;23.70;15.13;;;7.00;90.90;;;7.05;63.00;94198.19;4991607;28;20474;-59
2022/01/06 04:48:20;;;;;;;25.57;14.37;;;7.10;90.80;;;7.00;62.97;94164.59;4989868;28;20845;-58
2022/01/06 04:50:47;;;;;;;22.27;15.17;;;7.00;90.80;;;6.97;62.51;94188.41;4984707;28;20653;-58
2022/01/06 04:53:16;;;;;;;26.13;14.30;;;7.00;90.80;;;6.91;63.18;94194.19;4991551;28;20533;-58
2022/01/06 04:55:43;;;;;;;32.10;18.70;;;6.90;90.90;;;6.87;62.94;94198.00;4988329;28;20470;-59
2022/01/06 04:58:11;;;;;;;28.07;17.23;;;6.90;90.70;;;6.79;63.30;94172.53;4991039;28;20465;-57
2022/01/06 05:00:38;;;;;;;29.37;16.70;;;6.80;90.90;;;6.77;65.00;94182.31;4989043;28;20930;-60
2022/01/06 05:03:06;;;;;;;23.40;15.37;;;6.80;92.60;;;6.78;63.26;94178.72;4987385;28;20459;-60
2022/01/06 05:05:33;;;;;;;26.50;17.13;;;6.80;91.40;;;6.78;63.86;94178.72;4989180;28;20485;-59
2022/01/06 05:08:01;;;;;;;29.63;16.67;;;6.80;91.60;;;6.78;63.16;94186.56;4987939;28;20447;-57
2022/01/06 05:10:29;;;;;;;32.80;17.37;;;6.80;91.20;;;6.75;62.92;94186.00;4990676;28;20560;-59
2022/01/06 05:12:57;;;;;;;32.90;17.30;;;6.80;91.20;;;6.71;62.87;94179.38;4989688;28;20516;-60
2022/01/06 05:15:24;;;;;;;34.90;16.87;;;6.70;91.00;;;6.64;63.67;94173.88;4990717;28;20475;-60
2022/01/06 05:17:51;;;;;;;28.83;17.37;;;6.70;91.40;;;6.60;63.35;94196.84;4988790;28;20450;-57
2022/01/06 05:20:24;;;;;;;30.70;17.90;;;6.70;91.20;;;6.57;63.21;94191.06;4990147;28;20471;-60
2022/01/06 05:22:54;;;;;;;29.87;16.30;;;6.60;91.30;;;6.53;63.59;94200.94;4987622;28;20447;-58
2022/01/06 05:25:25;;;;;;;27.50;17.57;;;6.60;91.30;;;6.49;63.83;94189.09;4989389;28;20470;-60
2022/01/06 05:27:54;;;;;;;26.80;16.50;;;6.50;91.30;;;6.48;65.02;94178.78;4987040;28;20443;-58
2022/01/06 05:30:21;;;;;;;35.00;17.83;;;6.50;92.50;;;6.49;64.19;94177.81;4989304;28;20548;-59
2022/01/06 05:32:49;;;;;;;33.83;17.87;;;6.50;92.10;;;6.49;64.00;94181.28;4987004;28;20481;-63
2022/01/06 05:35:16;;;;;;;35.67;17.03;;;6.50;92.00;;;6.49;64.33;94199.56;4987233;28;20486;-57
2022/01/06 05:37:43;;;;;;;31.00;15.67;;;6.50;91.90;;;6.49;64.22;94180.41;4988166;28;20979;-63
2022/01/06 05:40:13;;;;;;;29.50;15.80;;;6.50;92.20;;;6.51;64.05;94192.41;4991570;28;20916;-59
2022/01/06 05:42:40;;;;;;;30.03;15.93;;;6.50;92.30;;;6.56;64.66;94184.16;4989229;28;20450;-67
2022/01/06 05:45:11;;;;;;;28.40;15.90;;;6.60;92.40;;;6.60;64.36;94169.84;4988631;28;20471;-59
2022/01/06 05:47:38;;;;;;;28.67;16.27;;;6.60;92.40;;;6.64;64.10;94194.78;4985900;28;20449;-72
2022/01/06 05:50:08;;;;;;;38.07;16.27;;;6.60;92.20;;;6.65;63.82;94201.66;4991224;28;20504;-60
2022/01/06 05:52:36;;;;;;;24.00;14.30;;;6.70;92.20;;;6.63;63.97;94207.03;4991333;28;21068;-72
2022/01/06 05:55:03;;;;;;;27.83;16.00;;;6.70;92.10;;;6.63;64.19;94200.94;4990117;28;20471;-60
2022/01/06 05:57:30;;;;;;;33.50;16.37;;;6.70;92.20;;;6.64;64.06;94206.03;4988285;28;20465;-65
2022/01/06 05:59:58;;;;;;;24.63;13.60;;;6.70;92.10;;;6.62;63.77;94204.53;4989136;28;20482;-63
2022/01/06 06:02:26;;;;;;;19.90;13.63;;;6.70;92.00;;;6.60;64.60;94190.75;4988081;28;20459;-60
2022/01/06 06:04:54;;;;;;;25.23;16.30;;;6.60;92.30;;;6.59;64.77;94210.03;4986684;28;20506;-59
2022/01/06 06:07:23;;;;;;;20.50;13.57;;;6.60;92.50;;;6.58;64.20;94193.53;4984561;28;20502;-56
2022/01/06 06:09:51;;;;;;;19.53;12.23;;;6.60;92.30;;;6.62;64.83;94188.88;4985363;28;20926;-59
2022/01/06 06:12:18;;;;;;;25.30;13.80;;;6.60;92.50;;;6.66;65.21;94210.31;4987654;28;20454;-63
2022/01/06 06:14:45;;;;;;;26.17;14.33;;;6.70;92.70;;;6.73;63.87;94211.47;4989700;28;20450;-66
2022/01/06 06:17:13;;;;;;;25.33;14.20;;;6.70;92.20;;;6.73;64.19;94203.63;4984807;28;20471;-59
2022/01/06 06:19:42;;;;;;;21.30;12.83;;;6.70;92.30;;;6.76;64.73;94195.50;4987954;28;20831;-56
2022/01/06 06:22:10;;;;;;;24.27;15.23;;;6.80;92.70;;;6.81;64.52;94214.22;4987994;28;20455;-60
2022/01/06 06:24:37;;;;;;;19.33;12.67;;;6.80;92.40;;;6.82;64.59;94211.47;4988566;28;20450;-60
2022/01/06 06:27:06;;;;;;;21.10;12.20;;;6.80;92.50;;;6.84;64.30;94216.56;4989950;28;21042;-67
2022/01/06 06:29:33;;;;;;;20.77;13.00;;;6.80;92.40;;;6.87;64.01;94232.00;4985272;28;20898;-61
2022/01/06 06:32:00;;;;;;;22.40;12.20;;;6.90;92.30;;;6.89;64.48;94203.91;4988434;28;20465;-61
2022/01/06 06:34:28;;;;;;;20.70;12.07;;;6.90;92.60;;;6.96;64.50;94210.28;4989081;28;20879;-59
2022/01/06 06:36:56;;;;;;;21.67;11.70;;;7.00;92.40;;;7.04;64.39;94209.59;4989984;28;20517;-68
2022/01/06 06:39:24;;;;;;;24.17;12.27;;;7.00;92.70;;;7.11;64.09;94225.56;4989668;28;20459;-66
2022/01/06 06:41:51;;;;;;;27.57;9.73;;;7.10;92.40;;;7.17;63.75;94219.81;4989719;28;20481;-67
2022/01/06 06:44:19;;;;;;;20.77;11.70;;;7.10;92.30;;;7.27;63.97;94197.09;4990139;28;20773;-68
2022/01/06 06:46:46;;;;;;;16.47;10.63;;;7.30;92.20;;;7.39;63.48;94221.38;4990765;28;20474;-59
2022/01/06 06:49:13;;;;;;;22.30;11.53;;;7.30;92.00;;;7.47;63.87;94212.84;4990996;28;20997;-59
2022/01/06 06:51:41;;;;;;;21.17;12.10;;;7.50;92.10;;;7.58;63.39;94217.09;4991247;28;20486;-65
2022/01/06 06:54:09;;;;;;;26.93;11.40;;;7.50;91.90;;;7.69;63.30;94219.56;4990839;28;20461;-59
2022/01/06 06:56:37;;;;;;;17.23;11.63;;;7.60;91.60;;;7.82;63.15;94217.50;4989795;28;21018;-67
2022/01/06 06:59:04;;;;;;;21.97;11.70;;;7.80;91.50;;;8.12;62.41;94226.16;4987853;28;20446;-67
2022/01/06 07:01:31;;;;;;;31.23;12.70;;;8.10;91.50;;;8.49;61.88;94228.00;4985049;28;21094;-59
2022/01/06 07:03:59;;;;;;;21.80;13.00;;;8.50;91.00;;;8.83;60.80;94250.22;4986790;28;20537;-70
2022/01/06 07:06:26;;;;;;;27.63;14.50;;;8.80;90.40;;;9.21;60.30;94236.09;4990548;28;20479;-70
2022/01/06 07:08:53;;;;;;;29.07;14.27;;;9.20;90.10;;;9.94;59.83;94229.91;4987872;28;20818;-57
2022/01/06 07:11:23;;;;;;;23.00;13.30;;;9.90;89.70;;;10.89;57.50;94234.47;4989425;28;20497;-68
2022/01/06 07:13:50;;;;;;;23.67;12.63;;;10.80;85.80;;;11.77;56.03;94227.97;4990132;28;20529;-60
2022/01/06 07:16:18;;;;;;;34.50;14.60;;;11.80;82.70;;;12.48;54.19;94252.88;4990014;28;20482;-67
2022/01/06 07:18:45;;;;;;;27.70;14.60;;;12.50;79.80;;;13.17;53.48;94235.75;4988523;28;20959;-66
2022/01/06 07:21:12;;;;;;;25.67;14.50;;;13.20;78.20;;;13.97;51.72;94222.28;4991495;28;20478;-65
2022/01/06 07:23:40;;;;;;;26.30;16.07;;;14.00;75.00;;;14.61;50.71;94250.19;4990240;28;20446;-57
2022/01/06 07:26:07;;;;;;;31.23;16.63;;;14.80;72.70;;;15.16;47.58;94220.81;4987864;28;20540;-58
2022/01/06 07:28:36;;;;;;;21.00;15.27;;;15.50;65.90;;;15.73;47.96;94230.66;4987618;28;20454;-61
2022/01/06 07:31:04;;;;;;;29.17;16.87;;;16.00;66.80;;;16.21;46.44;94242.63;4984916;28;20499;-66
2022/01/06 07:33:31;;;;;;;26.30;14.90;;;16.60;64.00;;;16.61;43.60;94245.63;4988216;28;20458;-66
2022/01/06 07:35:59;;;;;;;25.63;16.63;;;17.00;59.20;;;16.91;43.87;94230.31;4989498;28;20984;-60
2022/01/06 07:38:27;;;;;;;20.50;14.40;;;17.40;59.00;;;17.02;44.85;94250.19;4988596;28;20482;-66
2022/01/06 07:40:55;;;;;;;22.10;14.23;;;17.50;59.20;;;17.02;42.48;94242.22;4988786;28;20470;-62
2022/01/06 07:43:22;;;;;;;47.67;28.10;;;17.50;55.00;;;16.87;40.83;94249.50;4991485;28;20974;-65
2022/01/06 07:45:51;;;;;;;59.03;29.50;;;17.30;53.40;;;16.71;43.22;94267.31;4992656;28;20568;-66
2022/01/06 07:48:25;;;;;;;50.50;30.67;;;17.10;55.60;;;16.63;44.04;94259.50;4994658;28;20454;-59
2022/01/06 07:50:53;;;;;;;55.40;32.97;;;16.90;56.60;;;16.68;43.32;94262.41;4992295;28;20497;-60
2022/01/06 07:53:20;;;;;;;55.90;33.60;;;16.80;55.60;;;16.79;43.55;94259.22;4992621;28;20480;-59
2022/01/06 07:55:48;;;;;;;52.40;32.20;;;16.80;57.30;;;16.72;43.24;94268.16;4992258;28;20470;-65
2022/01/06 07:58:15;;;;;;;50.97;29.20;;;16.70;55.80;;;16.58;43.61;94265.38;4991682;28;20455;-65
2022/01/06 08:00:43;;;;;;;46.73;29.10;;;16.60;56.00;;;16.63;43.55;94255.00;4992957;28;20482;-59
2022/01/06 08:03:11;;;;;;;41.87;27.10;;;16.50;57.00;;;16.83;43.54;94271.09;4989583;28;20496;-65
2022/01/06 08:05:39;;;;;;;37.87;24.60;;;16.50;57.10;;;17.08;43.19;94260.06;4991370;28;20470;-66
2022/01/06 08:08:06;;;;;;;38.37;23.90;;;16.70;56.50;;;17.41;42.99;94275.34;4998750;28;20476;-61
2022/01/06 08:10:34;;;;;;;36.20;21.27;;;17.00;56.60;;;17.82;41.64;94247.94;4994050;28;21015;-60
2022/01/06 08:13:01;;;;;;;40.87;21.70;;;17.30;55.50;;;18.26;41.76;94259.09;4995643;28;20973;-65
2022/01/06 08:15:28;;;;;;;36.60;18.93;;;17.70;55.30;;;18.60;41.39;94262.63;4990745;28;20890;-59
2022/01/06 08:17:56;;;;;;;46.93;23.10;;;18.10;54.90;;;18.83;40.10;94258.75;4991615;28;20463;-58
2022/01/06 08:20:25;;;;;;;43.83;22.57;;;18.40;53.30;;;19.06;40.60;94259.16;4993175;28;20817;-58
2022/01/06 08:22:52;;;;;;;40.47;23.13;;;18.60;53.80;;;19.31;39.90;94250.50;4992344;28;20451;-59
2022/01/06 08:25:20;;;;;;;31.70;20.67;;;18.80;53.60;;;19.53;39.08;94267.03;4992794;28;20827;-59
2022/01/06 08:27:47;;;;;;;42.43;24.83;;;19.00;52.30;;;19.75;37.86;94278.28;4987686;28;20447;-64
2022/01/06 08:30:14;;;;;;;37.07;21.90;;;19.30;50.90;;;19.90;38.98;94271.88;4990739;28;20502;-59
2022/01/06 08:32:42;;;;;;;36.00;23.10;;;19.40;51.40;;;20.10;38.50;94271.78;4991927;28;20455;-60
2022/01/06 08:35:10;;;;;;;55.97;23.50;;;19.60;51.50;;;20.32;37.89;94267.72;4991966;28;20852;-61
2022/01/06 08:37:39;;;;;;;35.40;22.80;;;19.80;49.90;;;20.51;37.98;94282.00;4991745;28;20455;-64
2022/01/06 08:40:08;;;;;;;41.57;26.50;;;20.00;50.50;;;20.66;37.72;94283.56;4992508;28;20471;-58
2022/01/06 08:42:35;;;;;;;51.37;27.80;;;20.20;49.40;;;20.77;36.72;94278.34;4992909;28;20459;-59
2022/01/06 08:45:03;;;;;;;45.40;26.77;;;20.30;48.10;;;20.68;37.61;94282.34;4990611;28;21036;-59
2022/01/06 08:47:31;;;;;;;38.40;24.93;;;20.30;49.10;;;20.64;36.64;94277.59;4991236;28;20857;-61
2022/01/06 08:49:58;;;;;;;50.13;30.07;;;20.20;47.80;;;20.65;37.47;94274.75;4991218;28;20477;-59
2022/01/06 08:52:25;;;;;;;50.60;25.70;;;20.30;48.90;;;20.74;37.58;94270.78;4990186;28;20490;-58
2022/01/06 08:54:54;;;;;;;50.90;27.33;;;20.30;49.10;;;20.95;36.59;94271.41;4986766;28;20482;-65
2022/01/06 08:57:22;;;;;;;42.50;27.30;;;20.50;47.90;;;21.09;36.69;94246.19;4988303;28;20533;-60
2022/01/06 08:59:50;;;;;;;46.50;28.80;;;20.60;48.10;;;21.34;36.66;94258.69;4990274;28;20565;-60
2022/01/06 09:02:17;;;;;;;39.60;25.43;;;20.80;48.10;;;21.52;36.25;94265.97;4988461;28;20451;-61
2022/01/06 09:04:44;;;;;;;43.73;27.10;;;21.00;47.40;;;21.65;35.73;94265.78;4990681;28;21497;-64
2022/01/06 09:07:12;;;;;;;49.27;27.70;;;21.20;46.80;;;21.71;35.48;94260.59;4991537;28;20443;-61
2022/01/06 09:09:40;;;;;;;41.00;28.07;;;21.30;46.60;;;21.80;35.88;94265.44;4987793;28;20474;-60
2022/01/06 09:12:16;;;;;;;41.03;25.80;;;21.30;46.60;;;22.04;35.46;94262.84;4990897;28;20566;-64
2022/01/06 09:14:44;;;;;;;47.63;27.73;;;21.50;46.30;;;22.18;35.58;94263.50;4985155;28;20461;-64
2022/01/06 09:17:11;;;;;;;40.80;26.50;;;21.60;45.70;;;22.28;33.77;94255.75;4991369;28;20951;-61
2022/01/06 09:19:38;;;;;;;55.30;28.90;;;21.70;44.90;;;22.33;32.88;94255.09;4988124;28;20452;-60
2022/01/06 09:22:05;;;;;;;60.27;28.77;;;21.80;43.40;;;22.31;34.19;94251.84;4991761;28;20980;-63
2022/01/06 09:24:33;;;;;;;51.07;27.37;;;21.70;44.60;;;22.31;34.20;94246.47;4987147;28;20451;-57
2022/01/06 09:27:00;;;;;;;57.97;29.17;;;21.70;44.80;;;22.43;34.08;94238.44;4988643;28;20458;-59
2022/01/06 09:29:29;;;;;;;51.20;27.63;;;21.80;44.60;;;22.63;34.07;94243.50;4989737;28;20473;-64
2022/01/06 09:31:57;;;;;;;52.23;30.13;;;22.00;44.60;;;22.84;34.02;94240.28;4986318;28;21061;-60
2022/01/06 09:34:24;;;;;;;55.00;32.17;;;22.20;44.10;;;23.03;33.38;94238.31;4985869;28;20464;-64
2022/01/06 09:36:51;;;;;;;49.03;32.13;;;22.40;44.10;;;23.24;33.01;94234.25;4984550;28;20509;-63
2022/01/06 09:39:18;;;;;;;50.83;31.10;;;22.60;43.90;;;23.45;33.27;94237.38;4986569;28;20533;-59
2022/01/06 09:41:47;;;;;;;45.80;29.03;;;22.80;43.90;;;23.68;32.45;94227.66;4989768;28;20479;-64
2022/01/06 09:44:15;;;;;;;51.50;30.20;;;23.00;42.80;;;23.84;31.32;94218.03;4985970;28;20879;-59
2022/01/06 09:46:44;;;;;;;49.67;30.47;;;23.20;40.50;;;24.01;31.44;94220.81;4989684;28;20889;-63
2022/01/06 09:49:11;;;;;;;59.47;29.57;;;23.40;41.60;;;24.22;31.83;94225.50;4988751;28;20455;-63
2022/01/06 09:51:38;;;;;;;61.03;31.70;;;23.50;42.20;;;24.44;32.35;94222.13;4989686;28;20911;-64
2022/01/06 09:54:07;;;;;;;47.80;29.90;;;23.70;42.10;;;24.69;31.69;94225.31;4992578;28;20461;-62
2022/01/06 09:56:35;;;;;;;62.77;28.77;;;23.90;41.10;;;24.99;31.23;94226.03;4988822;28;20558;-62
2022/01/06 09:59:03;;;;;;;31.43;15.57;;;24.20;40.60;;;25.26;30.63;94211.88;4988953;28;20463;-60
2022/01/06 10:01:30;;;;;;;22.33;12.03;;;24.50;40.50;;;25.25;29.64;94216.44;4990654;28;20482;-60
2022/01/06 10:03:59;;;;;;;16.53;9.20;;;24.50;39.10;;;25.28;28.94;94218.63;4989276;28;20446;-65
2022/01/06 10:06:28;;;;;;;6.87;5.67;;;24.50;37.80;;;25.14;28.41;94209.28;4989030;28;20478;-59
2022/01/06 10:08:57;;;;;;;11.47;4.00;;;24.50;37.20;;;24.95;28.13;94206.84;4988920;28;20469;-58
2022/01/06 10:11:26;;;;;;;11.83;2.70;;;24.20;36.40;;;24.68;28.15;94201.34;4993330;28;20498;-58
2022/01/06 10:13:59;;;;;;;8.53;2.40;;;24.00;37.00;;;24.63;27.43;94182.41;4990554;28;20521;-60
2022/01/06 10:16:28;;;;;;;6.60;3.03;;;23.90;36.10;;;24.46;27.75;94201.19;4992592;28;20501;-59
2022/01/06 10:19:03;;;;;;;3.47;2.83;;;23.70;36.50;;;24.44;28.24;94203.31;4990324;28;20462;-60
2022/01/06 10:21:33;;;;;;;5.07;3.30;;;23.70;37.10;;;24.79;28.21;94202.31;4989747;28;20521;-62